createdAt,value
2018-09-09T00:01:18.531Z,18.30
2018-09-09T00:03:47.132Z,18.40
2018-09-09T00:06:16.013Z,18.50
2018-09-09T00:08:44.584Z,18.70
2018-09-09T00:11:13.335Z,18.60
2018-09-09T00:13:42.109Z,18.40
2018-09-09T00:16:10.616Z,18.50
2018-09-09T00:18:39.169Z,18.30
2018-09-09T00:21:07.812Z,18.50
2018-09-09T00:23:36.358Z,18.40
2018-09-09T00:26:05.036Z,18.50
2018-09-09T00:28:33.611Z,18.50
2018-09-09T00:31:02.167Z,18.70
2018-09-09T00:33:31.054Z,18.70
2018-09-09T00:36:00.076Z,18.50
2018-09-09T00:38:28.616Z,18.50
2018-09-09T00:40:57.184Z,18.70
2018-09-09T00:43:25.784Z,18.70
2018-09-09T00:45:54.482Z,18.60
2018-09-09T00:48:23.049Z,18.90
2018-09-09T00:50:57.451Z,18.90
2018-09-09T00:53:31.244Z,18.60
2018-09-09T00:55:59.974Z,18.80
2018-09-09T00:58:28.727Z,18.80
2018-09-09T01:01:02.856Z,18.70
2018-09-09T01:03:31.454Z,18.90
2018-09-09T01:06:00.015Z,18.80
2018-09-09T01:08:28.639Z,19.00
2018-09-09T01:10:57.324Z,18.70
2018-09-09T01:13:25.901Z,18.60
2018-09-09T01:15:54.582Z,18.80
2018-09-09T01:18:23.096Z,18.80
2018-09-09T01:20:51.688Z,18.60
2018-09-09T01:23:20.267Z,18.90
2018-09-09T01:25:48.834Z,18.80
2018-09-09T01:28:17.361Z,19.00
2018-09-09T01:30:46.816Z,19.20
2018-09-09T01:33:15.368Z,18.90
2018-09-09T01:35:44.067Z,19.10
2018-09-09T01:38:12.754Z,18.90
2018-09-09T01:40:41.434Z,18.90
2018-09-09T01:43:10.112Z,19.10
2018-09-09T01:45:38.737Z,19.10
2018-09-09T01:48:07.268Z,19.00
2018-09-09T01:50:35.840Z,19.10
2018-09-09T01:53:04.713Z,19.10
2018-09-09T01:55:33.827Z,19.20
2018-09-09T01:58:02.493Z,19.10
2018-09-09T02:00:31.008Z,19.10
2018-09-09T02:02:59.612Z,19.20
2018-09-09T02:05:28.292Z,19.00
2018-09-09T02:07:56.885Z,19.10
2018-09-09T02:10:25.446Z,19.00
2018-09-09T02:12:53.997Z,18.80
2018-09-09T02:15:23.432Z,19.00
2018-09-09T02:17:52.078Z,18.90
2018-09-09T02:20:20.665Z,18.80
2018-09-09T02:22:49.217Z,18.90
2018-09-09T02:25:18.109Z,18.90
2018-09-09T02:27:46.661Z,18.70
2018-09-09T02:30:15.240Z,19.10
2018-09-09T02:32:43.953Z,18.90
2018-09-09T02:35:12.559Z,18.80
2018-09-09T02:37:41.128Z,18.80
2018-09-09T02:40:09.452Z,19.00
2018-09-09T02:42:37.980Z,19.00
2018-09-09T02:45:06.564Z,18.70
2018-09-09T02:47:35.197Z,18.70
2018-09-09T02:50:03.727Z,19.00
2018-09-09T02:52:32.288Z,19.00
2018-09-09T02:55:00.900Z,18.80
2018-09-09T02:57:29.401Z,18.90
2018-09-09T02:59:57.968Z,19.00
2018-09-09T03:02:26.586Z,19.20
2018-09-09T03:04:55.083Z,19.00
2018-09-09T03:07:23.668Z,19.30
2018-09-09T03:09:52.711Z,19.10
2018-09-09T03:12:21.384Z,19.00
2018-09-09T03:14:49.988Z,19.20
2018-09-09T03:17:18.957Z,19.10
2018-09-09T03:19:47.548Z,18.90
2018-09-09T03:22:16.195Z,18.90
2018-09-09T03:24:44.772Z,18.90
2018-09-09T03:27:13.377Z,19.40
2018-09-09T03:29:42.020Z,19.30
2018-09-09T03:32:10.658Z,19.30
2018-09-09T03:34:39.188Z,19.00
2018-09-09T03:37:07.771Z,19.10
2018-09-09T03:39:36.301Z,19.10
2018-09-09T03:42:05.657Z,18.90
2018-09-09T03:44:34.198Z,19.10
2018-09-09T03:47:02.753Z,18.90
2018-09-09T03:49:31.369Z,19.10
2018-09-09T03:52:00.002Z,18.90
2018-09-09T03:54:28.540Z,19.20
2018-09-09T03:56:57.164Z,19.00
2018-09-09T03:59:25.694Z,19.00
2018-09-09T04:01:54.203Z,19.10
2018-09-09T04:04:22.784Z,19.40
2018-09-09T04:06:51.359Z,19.30
2018-09-09T04:09:19.903Z,19.00
2018-09-09T04:11:48.533Z,19.20
2018-09-09T04:14:17.055Z,19.10
2018-09-09T04:16:45.584Z,19.20
2018-09-09T04:19:14.208Z,19.00
2018-09-09T04:21:48.040Z,19.10
2018-09-09T04:24:16.857Z,19.00
2018-09-09T04:26:45.472Z,19.00
2018-09-09T04:29:14.756Z,18.90
2018-09-09T04:31:43.321Z,19.10
2018-09-09T04:34:12.004Z,18.90
2018-09-09T04:36:40.543Z,19.10
2018-09-09T04:39:11.869Z,19.00
2018-09-09T04:41:40.829Z,19.20
2018-09-09T04:44:10.480Z,19.00
2018-09-09T04:46:39.126Z,19.00
2018-09-09T04:49:08.396Z,19.10
2018-09-09T04:51:37.151Z,19.00
2018-09-09T04:56:37.180Z,19.20
2018-09-09T04:59:06.066Z,19.30
2018-09-09T05:01:34.638Z,19.00
2018-09-09T05:04:03.168Z,19.20
2018-09-09T05:06:31.695Z,19.10
2018-09-09T05:09:00.333Z,19.20
2018-09-09T05:11:29.148Z,19.20
2018-09-09T05:13:57.690Z,19.20
2018-09-09T05:16:26.334Z,19.40
2018-09-09T05:18:54.896Z,19.10
2018-09-09T05:21:23.446Z,19.30
2018-09-09T05:23:52.025Z,19.30
2018-09-09T05:26:20.656Z,19.20
2018-09-09T05:28:49.189Z,19.20
2018-09-09T05:31:18.042Z,19.10
2018-09-09T05:33:46.679Z,19.30
2018-09-09T05:36:15.412Z,19.40
2018-09-09T05:38:44.087Z,19.30
2018-09-09T05:41:12.636Z,19.50
2018-09-09T05:43:41.156Z,19.40
2018-09-09T05:46:09.987Z,19.30
2018-09-09T05:48:38.527Z,19.10
2018-09-09T05:51:07.736Z,19.20
2018-09-09T05:53:36.922Z,19.20
2018-09-09T05:56:05.719Z,19.40
2018-09-09T05:58:34.330Z,19.40
2018-09-09T06:01:02.901Z,19.30
2018-09-09T06:03:31.565Z,19.30
2018-09-09T06:06:00.303Z,19.40
2018-09-09T06:08:28.856Z,19.40
2018-09-09T06:10:58.137Z,19.30
2018-09-09T06:13:27.479Z,19.30
2018-09-09T06:15:56.172Z,19.60
2018-09-09T06:18:24.806Z,19.30
2018-09-09T06:20:53.360Z,19.30
2018-09-09T06:23:22.290Z,19.50
2018-09-09T06:25:50.851Z,19.50
2018-09-09T06:28:19.476Z,19.40
2018-09-09T06:30:47.988Z,19.60
2018-09-09T06:33:16.551Z,19.70
2018-09-09T06:35:45.179Z,19.40
2018-09-09T06:38:13.745Z,19.80
2018-09-09T06:40:42.268Z,19.80
2018-09-09T06:43:10.796Z,19.80
2018-09-09T06:45:39.364Z,19.90
2018-09-09T06:48:07.939Z,19.60
2018-09-09T06:50:36.584Z,19.70
2018-09-09T06:53:05.329Z,19.90
2018-09-09T06:55:33.978Z,19.90
2018-09-09T06:58:02.557Z,19.70
2018-09-09T07:00:31.160Z,19.90
2018-09-09T07:02:59.724Z,19.60
2018-09-09T07:05:28.294Z,19.60
2018-09-09T07:07:57.122Z,19.60
2018-09-09T07:10:25.675Z,19.50
2018-09-09T07:12:54.281Z,19.90
2018-09-09T07:15:22.847Z,19.80
2018-09-09T07:17:51.441Z,19.80
2018-09-09T07:20:20.763Z,19.80
2018-09-09T07:22:49.467Z,19.80
2018-09-09T07:25:17.988Z,19.70
2018-09-09T07:27:46.713Z,20.00
2018-09-09T07:30:15.348Z,20.00
2018-09-09T07:32:43.904Z,19.90
2018-09-09T07:35:12.787Z,19.90
2018-09-09T07:37:41.477Z,20.00
2018-09-09T07:40:10.209Z,20.20
2018-09-09T07:42:38.852Z,20.30
2018-09-09T07:45:07.472Z,20.20
2018-09-09T07:47:36.247Z,20.30
2018-09-09T07:50:05.068Z,20.50
2018-09-09T07:52:33.640Z,20.40
2018-09-09T07:55:02.222Z,20.20
2018-09-09T07:57:30.866Z,20.30
2018-09-09T07:59:59.547Z,20.50
2018-09-09T08:02:28.100Z,20.50
2018-09-09T08:04:56.781Z,20.70
2018-09-09T08:07:25.497Z,20.50
2018-09-09T08:09:54.121Z,20.50
2018-09-09T08:12:22.782Z,20.60
2018-09-09T08:14:51.349Z,20.70
2018-09-09T08:17:20.072Z,20.80
2018-09-09T08:19:48.637Z,20.90
2018-09-09T08:22:17.234Z,21.10
2018-09-09T08:24:45.862Z,21.00
2018-09-09T08:27:15.065Z,21.10
2018-09-09T08:29:43.642Z,21.20
2018-09-09T08:32:12.248Z,21.20
2018-09-09T08:34:40.861Z,21.30
2018-09-09T08:37:09.446Z,21.40
2018-09-09T08:39:38.096Z,21.40
2018-09-09T08:42:06.809Z,21.40
2018-09-09T08:44:35.362Z,21.50
2018-09-09T08:47:03.938Z,21.50
2018-09-09T08:49:32.542Z,21.50
2018-09-09T08:52:01.232Z,21.50
2018-09-09T08:54:29.732Z,21.50
2018-09-09T08:56:58.304Z,21.50
2018-09-09T08:59:26.879Z,21.60
2018-09-09T09:01:55.483Z,21.50
2018-09-09T09:04:24.071Z,21.60
2018-09-09T09:06:52.820Z,21.30
2018-09-09T09:09:21.349Z,21.60
2018-09-09T09:11:50.257Z,21.70
2018-09-09T09:14:18.843Z,21.60
2018-09-09T09:16:47.436Z,21.60
2018-09-09T09:19:16.084Z,21.60
2018-09-09T09:21:44.647Z,21.60
2018-09-09T09:24:13.228Z,21.80
2018-09-09T09:26:41.780Z,21.90
2018-09-09T09:29:11.020Z,22.10
2018-09-09T09:31:39.709Z,22.20
2018-09-09T09:34:08.861Z,22.20
2018-09-09T09:36:37.484Z,22.30
2018-09-09T09:39:07.702Z,22.30
2018-09-09T09:41:36.379Z,22.30
2018-09-09T09:44:04.956Z,22.30
2018-09-09T09:46:33.547Z,22.40
2018-09-09T09:49:02.115Z,22.40
2018-09-09T09:51:30.817Z,22.40
2018-09-09T09:53:59.405Z,22.40
2018-09-09T09:56:27.954Z,22.30
2018-09-09T09:58:56.494Z,22.30
2018-09-09T10:01:25.049Z,22.30
2018-09-09T10:03:54.314Z,22.40
2018-09-09T10:06:22.867Z,22.40
2018-09-09T10:08:51.481Z,22.40
2018-09-09T10:11:20.312Z,22.40
2018-09-09T10:13:49.078Z,22.50
2018-09-09T10:16:17.640Z,22.50
2018-09-09T10:18:46.214Z,22.60
2018-09-09T10:21:14.857Z,22.60
2018-09-09T10:23:43.460Z,22.60
2018-09-09T10:26:12.049Z,22.60
2018-09-09T10:28:40.687Z,22.70
2018-09-09T10:31:09.788Z,22.70
2018-09-09T10:33:38.552Z,22.70
2018-09-09T10:36:07.552Z,22.70
2018-09-09T10:38:36.224Z,22.70
2018-09-09T10:41:04.847Z,22.70
2018-09-09T10:43:33.578Z,22.80
2018-09-09T10:46:02.245Z,22.80
2018-09-09T10:48:30.783Z,22.80
2018-09-09T10:50:59.607Z,22.90
2018-09-09T10:53:28.280Z,22.90
2018-09-09T10:55:57.153Z,23.00
2018-09-09T10:58:25.786Z,23.00
2018-09-09T11:00:54.349Z,23.10
2018-09-09T11:03:22.930Z,23.10
2018-09-09T11:05:51.577Z,23.20
2018-09-09T11:08:20.345Z,23.20
2018-09-09T11:10:48.882Z,23.20
2018-09-09T11:13:17.485Z,23.10
2018-09-09T11:15:46.111Z,23.30
2018-09-09T11:18:14.769Z,23.40
2018-09-09T11:20:44.634Z,23.40
2018-09-09T11:23:13.301Z,23.50
2018-09-09T11:25:41.889Z,23.40
2018-09-09T11:28:10.604Z,23.30
2018-09-09T11:30:39.265Z,23.40
2018-09-09T11:33:07.968Z,23.50
2018-09-09T11:35:36.606Z,23.50
2018-09-09T11:38:05.319Z,23.60
2018-09-09T11:40:33.984Z,23.60
2018-09-09T11:43:02.534Z,23.60
2018-09-09T11:45:31.173Z,23.50
2018-09-09T11:47:59.703Z,23.60
2018-09-09T11:50:28.337Z,23.70
2018-09-09T11:52:56.864Z,23.70
2018-09-09T11:55:25.508Z,23.80
2018-09-09T11:57:54.582Z,23.80
2018-09-09T12:00:23.214Z,23.90
2018-09-09T12:02:51.756Z,23.90
2018-09-09T12:05:20.400Z,23.90
2018-09-09T12:07:48.984Z,23.80
2018-09-09T12:10:17.511Z,23.70
2018-09-09T12:12:46.076Z,23.80
2018-09-09T12:15:14.650Z,23.80
2018-09-09T12:17:44.002Z,23.80
2018-09-09T12:20:12.584Z,23.80
2018-09-09T12:22:41.157Z,23.90
2018-09-09T12:25:09.861Z,24.00
2018-09-09T12:27:39.219Z,24.10
2018-09-09T12:30:08.326Z,24.10
2018-09-09T12:32:36.907Z,24.20
2018-09-09T12:35:05.931Z,24.30
2018-09-09T12:37:34.792Z,24.40
2018-09-09T12:40:03.407Z,24.40
2018-09-09T12:42:32.897Z,24.50
2018-09-09T12:45:06.792Z,24.50
2018-09-09T12:47:40.869Z,24.50
2018-09-09T12:50:09.496Z,24.50
2018-09-09T12:52:38.055Z,24.50
2018-09-09T12:55:07.091Z,24.60
2018-09-09T12:57:35.640Z,24.50
2018-09-09T13:00:04.574Z,24.40
2018-09-09T13:02:33.293Z,24.50
2018-09-09T13:05:02.056Z,24.60
2018-09-09T13:07:30.640Z,24.70
2018-09-09T13:09:59.203Z,24.60
2018-09-09T13:12:31.965Z,24.50
2018-09-09T13:15:00.632Z,24.50
2018-09-09T13:17:29.208Z,24.50
2018-09-09T13:19:57.833Z,24.50
2018-09-09T13:22:27.216Z,24.60
2018-09-09T13:24:55.832Z,24.60
2018-09-09T13:27:25.096Z,24.60
2018-09-09T13:29:54.440Z,24.60
2018-09-09T13:32:23.189Z,24.70
2018-09-09T13:34:51.857Z,24.70
2018-09-09T13:37:20.426Z,24.70
2018-09-09T13:39:49.200Z,24.70
2018-09-09T13:42:17.805Z,24.80
2018-09-09T13:44:47.044Z,24.80
2018-09-09T13:47:15.715Z,24.80
2018-09-09T13:49:45.050Z,24.90
2018-09-09T13:52:13.694Z,24.90
2018-09-09T13:54:43.333Z,24.90
2018-09-09T13:57:11.961Z,24.90
2018-09-09T13:59:41.171Z,24.90
2018-09-09T14:02:09.897Z,25.00
2018-09-09T14:04:38.482Z,25.00
2018-09-09T14:07:07.185Z,24.90
2018-09-09T14:09:35.973Z,24.90
2018-09-09T14:12:04.541Z,25.00
2018-09-09T14:14:33.145Z,25.00
2018-09-09T14:17:01.719Z,25.10
2018-09-09T14:19:30.851Z,25.10
2018-09-09T14:21:59.507Z,25.10
2018-09-09T14:24:28.084Z,25.10
2018-09-09T14:26:57.300Z,25.00
2018-09-09T14:29:25.988Z,25.00
2018-09-09T14:31:54.662Z,25.10
2018-09-09T14:34:23.372Z,25.00
2018-09-09T14:36:52.255Z,25.00
2018-09-09T14:39:20.952Z,25.00
2018-09-09T14:41:49.533Z,25.10
2018-09-09T14:44:18.085Z,25.10
2018-09-09T14:46:46.772Z,25.10
2018-09-09T14:49:15.400Z,25.00
2018-09-09T14:51:44.001Z,25.00
2018-09-09T14:54:12.723Z,25.00
2018-09-09T14:56:41.290Z,25.00
2018-09-09T14:59:09.942Z,25.00
2018-09-09T15:01:38.535Z,25.00
2018-09-09T15:04:07.189Z,24.90
2018-09-09T15:06:35.841Z,24.90
2018-09-09T15:09:06.715Z,24.80
2018-09-09T15:11:35.264Z,24.80
2018-09-09T15:14:03.915Z,24.90
2018-09-09T15:16:32.468Z,24.90
2018-09-09T15:19:01.056Z,24.90
2018-09-09T15:21:29.635Z,25.00
2018-09-09T15:23:58.226Z,25.10
2018-09-09T15:26:26.857Z,25.10
2018-09-09T15:28:55.747Z,25.10
2018-09-09T15:31:24.220Z,25.10
2018-09-09T15:33:52.852Z,25.20
2018-09-09T15:36:21.519Z,25.20
2018-09-09T15:38:50.838Z,25.20
2018-09-09T15:41:19.448Z,25.20
2018-09-09T15:43:48.773Z,25.20
2018-09-09T15:46:17.453Z,25.30
2018-09-09T15:48:46.152Z,25.30
2018-09-09T15:51:14.839Z,25.30
2018-09-09T15:53:43.511Z,25.30
2018-09-09T15:56:12.073Z,25.30
2018-09-09T15:58:41.476Z,25.20
2018-09-09T16:01:10.107Z,25.20
2018-09-09T16:03:39.392Z,25.20
2018-09-09T16:06:08.118Z,25.20
2018-09-09T16:08:36.690Z,25.20
2018-09-09T16:11:05.263Z,25.20
2018-09-09T16:13:33.784Z,25.10
2018-09-09T16:16:02.442Z,25.10
2018-09-09T16:18:31.884Z,25.10
2018-09-09T16:21:00.643Z,25.10
2018-09-09T16:23:29.476Z,25.10
2018-09-09T16:25:58.030Z,25.10
2018-09-09T16:28:26.679Z,25.10
2018-09-09T16:30:55.284Z,25.10
2018-09-09T16:33:23.946Z,25.10
2018-09-09T16:35:52.741Z,25.10
2018-09-09T16:38:21.402Z,25.10
2018-09-09T16:40:50.021Z,25.10
2018-09-09T16:43:18.581Z,25.10
2018-09-09T16:45:47.188Z,25.10
2018-09-09T16:48:15.749Z,25.20
2018-09-09T16:50:44.450Z,25.10
2018-09-09T16:53:13.030Z,25.10
2018-09-09T16:55:41.730Z,25.10
2018-09-09T16:58:10.416Z,25.10
2018-09-09T17:00:39.042Z,25.10
2018-09-09T17:03:07.920Z,25.10
2018-09-09T17:05:36.851Z,25.10
2018-09-09T17:08:05.447Z,25.10
2018-09-09T17:10:34.088Z,25.10
2018-09-09T17:13:02.784Z,25.20
2018-09-09T17:15:31.275Z,25.10
2018-09-09T17:17:59.971Z,25.10
2018-09-09T17:20:28.534Z,25.10
2018-09-09T17:22:57.146Z,25.10
2018-09-09T17:25:25.731Z,25.10
2018-09-09T17:27:54.549Z,25.10
2018-09-09T17:30:23.313Z,25.00
2018-09-09T17:32:51.876Z,25.00
2018-09-09T17:35:20.480Z,24.90
2018-09-09T17:37:49.654Z,24.80
2018-09-09T17:40:18.235Z,24.70
2018-09-09T17:42:47.012Z,24.60
2018-09-09T17:45:15.792Z,24.60
2018-09-09T17:47:44.438Z,24.50
2018-09-09T17:50:13.065Z,24.50
2018-09-09T17:52:41.734Z,24.40
2018-09-09T17:55:10.466Z,24.40
2018-09-09T17:57:39.024Z,24.30
2018-09-09T18:00:11.085Z,24.20
2018-09-09T18:02:39.722Z,24.10
2018-09-09T18:05:09.486Z,24.10
2018-09-09T18:07:38.158Z,24.00
2018-09-09T18:10:32.804Z,23.90
2018-09-09T18:13:01.990Z,23.80
2018-09-09T18:15:30.643Z,23.80
2018-09-09T18:17:59.951Z,23.70
2018-09-09T18:20:28.756Z,23.70
2018-09-09T18:22:57.360Z,23.60
2018-09-09T18:25:25.936Z,23.50
2018-09-09T18:27:54.474Z,23.40
2018-09-09T18:30:23.112Z,23.40
2018-09-09T18:32:51.688Z,23.30
2018-09-09T18:35:20.347Z,23.30
2018-09-09T18:37:48.962Z,23.10
2018-09-09T18:40:17.660Z,23.00
2018-09-09T18:42:46.267Z,22.90
2018-09-09T18:45:15.008Z,22.90
2018-09-09T18:47:43.615Z,22.90
2018-09-09T18:50:12.235Z,22.80
2018-09-09T18:52:40.933Z,22.80
2018-09-09T18:55:09.510Z,22.70
2018-09-09T18:57:38.160Z,22.70
2018-09-09T19:00:07.067Z,22.60
2018-09-09T19:02:36.281Z,22.50
2018-09-09T19:05:05.288Z,22.50
2018-09-09T19:07:33.901Z,22.40
2018-09-09T19:10:02.507Z,22.30
2018-09-09T19:12:31.146Z,22.30
2018-09-09T19:14:59.765Z,22.20
2018-09-09T19:17:28.613Z,22.20
2018-09-09T19:19:57.200Z,22.20
2018-09-09T19:22:25.879Z,22.10
2018-09-09T19:24:54.501Z,22.10
2018-09-09T19:27:23.133Z,22.00
2018-09-09T19:29:51.836Z,22.00
2018-09-09T19:32:20.531Z,21.90
2018-09-09T19:34:49.094Z,21.90
2018-09-09T19:37:17.692Z,21.80
2018-09-09T19:39:46.235Z,21.70
2018-09-09T19:42:15.157Z,21.60
2018-09-09T19:44:43.938Z,21.60
2018-09-09T19:47:12.632Z,21.60
2018-09-09T19:49:41.204Z,21.60
2018-09-09T19:52:09.772Z,21.50
2018-09-09T19:54:38.711Z,21.10
2018-09-09T19:57:07.312Z,21.50
2018-09-09T19:59:36.062Z,21.50
2018-09-09T20:02:04.985Z,21.40
2018-09-09T20:04:35.799Z,21.40
2018-09-09T20:07:04.485Z,21.00
2018-09-09T20:09:33.083Z,21.40
2018-09-09T20:12:01.753Z,21.30
2018-09-09T20:14:30.369Z,21.30
2018-09-09T20:16:58.993Z,21.30
2018-09-09T20:19:27.571Z,21.30
2018-09-09T20:21:56.179Z,21.30
2018-09-09T20:24:24.734Z,21.40
2018-09-09T20:26:53.622Z,21.00
2018-09-09T20:29:22.236Z,21.40
2018-09-09T20:31:50.818Z,21.30
2018-09-09T20:34:19.406Z,21.40
2018-09-09T20:36:48.235Z,21.30
2018-09-09T20:39:16.811Z,21.30
2018-09-09T20:41:45.430Z,21.20
2018-09-09T20:44:14.040Z,21.10
2018-09-09T20:46:42.932Z,21.20
2018-09-09T20:49:11.681Z,21.20
2018-09-09T20:51:40.421Z,21.20
2018-09-09T20:54:09.037Z,21.20
2018-09-09T20:56:38.184Z,21.30
2018-09-09T20:59:07.535Z,21.30
2018-09-09T21:01:36.214Z,21.30
2018-09-09T21:04:05.898Z,20.90
2018-09-09T21:06:34.525Z,21.10
2018-09-09T21:09:03.284Z,21.10
2018-09-09T21:11:32.347Z,21.00
2018-09-09T21:14:01.108Z,21.00
2018-09-09T21:16:29.721Z,21.00
2018-09-09T21:18:58.359Z,20.80
2018-09-09T21:21:27.074Z,20.70
2018-09-09T21:23:55.780Z,20.70
2018-09-09T21:26:24.379Z,20.60
2018-09-09T21:28:53.313Z,20.60
2018-09-09T21:31:21.934Z,20.50
2018-09-09T21:33:50.917Z,20.50
2018-09-09T21:36:19.429Z,20.30
2018-09-09T21:38:48.210Z,20.40
2018-09-09T21:41:19.705Z,20.40
2018-09-09T21:43:48.348Z,20.40
2018-09-09T21:46:16.926Z,20.30
2018-09-09T21:48:45.535Z,20.40
2018-09-09T21:51:14.402Z,20.40
2018-09-09T21:53:43.236Z,20.50
2018-09-09T21:56:11.815Z,20.50
2018-09-09T21:58:40.828Z,20.60
2018-09-09T22:01:14.850Z,20.40
2018-09-09T22:03:45.334Z,20.70
2018-09-09T22:06:13.838Z,20.70
2018-09-09T22:08:42.547Z,20.70
2018-09-09T22:11:11.167Z,20.80
2018-09-09T22:13:39.779Z,20.80
2018-09-09T22:16:08.660Z,20.90
2018-09-09T22:18:37.260Z,20.90
2018-09-09T22:21:05.816Z,21.00
2018-09-09T22:23:35.309Z,20.90
2018-09-09T22:26:05.543Z,21.00
2018-09-09T22:28:34.997Z,20.80
2018-09-09T22:31:03.875Z,20.90
2018-09-09T22:33:32.676Z,20.70
2018-09-09T22:36:01.202Z,20.50
2018-09-09T22:38:29.868Z,20.70
2018-09-09T22:40:58.498Z,20.60
2018-09-09T22:43:27.148Z,20.70
2018-09-09T22:45:59.316Z,20.70
2018-09-09T22:48:28.597Z,20.60
2018-09-09T22:50:57.368Z,20.60
2018-09-09T22:53:25.960Z,20.70
2018-09-09T22:55:54.533Z,20.50
2018-09-09T22:58:23.826Z,20.60
2018-09-09T23:00:52.557Z,20.50
2018-09-09T23:03:21.344Z,20.50
2018-09-09T23:05:49.932Z,20.50
2018-09-09T23:08:18.741Z,20.80
2018-09-09T23:10:47.272Z,20.60
2018-09-09T23:13:15.832Z,20.70
2018-09-09T23:15:44.412Z,20.70
2018-09-09T23:18:12.984Z,20.60
2018-09-09T23:20:41.543Z,20.60
2018-09-09T23:23:10.163Z,20.60
2018-09-09T23:25:38.767Z,20.70
2018-09-09T23:28:07.329Z,20.80
2018-09-09T23:30:35.865Z,20.70
2018-09-09T23:33:04.527Z,20.80
2018-09-09T23:35:33.059Z,20.60
2018-09-09T23:38:01.612Z,20.50
2018-09-09T23:40:30.244Z,20.70
2018-09-09T23:42:58.899Z,20.80
2018-09-09T23:45:27.511Z,20.70
2018-09-09T23:47:56.327Z,20.80
2018-09-09T23:50:24.857Z,20.80
2018-09-09T23:52:53.396Z,20.90
2018-09-09T23:55:21.994Z,20.90
2018-09-09T23:57:50.613Z,21.00
